sensor_id;sensor_type;location;lat;lon;timestamp;temperature;humidity
70271;SHT31;57680;54.292;18.598;2023-07-29T00:01:31;13.25;98.40
70271;SHT31;57680;54.292;18.598;2023-07-29T00:03:57;13.26;98.32
70271;SHT31;57680;54.292;18.598;2023-07-29T00:06:23;13.28;98.26
70271;SHT31;57680;54.292;18.598;2023-07-29T00:08:49;13.25;98.08
70271;SHT31;57680;54.292;18.598;2023-07-29T00:11:14;13.22;98.43
70271;SHT31;57680;54.292;18.598;2023-07-29T00:13:39;13.22;98.49
70271;SHT31;57680;54.292;18.598;2023-07-29T00:16:05;13.18;98.44
70271;SHT31;57680;54.292;18.598;2023-07-29T00:18:30;13.21;98.73
70271;SHT31;57680;54.292;18.598;2023-07-29T00:20:55;13.19;98.63
70271;SHT31;57680;54.292;18.598;2023-07-29T00:23:21;13.15;98.52
70271;SHT31;57680;54.292;18.598;2023-07-29T00:25:46;13.15;98.59
70271;SHT31;57680;54.292;18.598;2023-07-29T00:28:12;13.10;98.40
70271;SHT31;57680;54.292;18.598;2023-07-29T00:30:37;13.08;98.56
70271;SHT31;57680;54.292;18.598;2023-07-29T00:33:03;13.05;98.64
70271;SHT31;57680;54.292;18.598;2023-07-29T00:35:28;13.00;98.52
70271;SHT31;57680;54.292;18.598;2023-07-29T00:37:54;12.95;98.70
70271;SHT31;57680;54.292;18.598;2023-07-29T00:40:20;12.93;98.66
70271;SHT31;57680;54.292;18.598;2023-07-29T00:42:46;12.95;98.83
70271;SHT31;57680;54.292;18.598;2023-07-29T00:45:12;12.95;98.84
70271;SHT31;57680;54.292;18.598;2023-07-29T00:47:38;12.98;99.06
70271;SHT31;57680;54.292;18.598;2023-07-29T00:50:04;12.95;98.90
70271;SHT31;57680;54.292;18.598;2023-07-29T00:52:29;12.94;98.82
70271;SHT31;57680;54.292;18.598;2023-07-29T00:54:55;12.95;99.25
70271;SHT31;57680;54.292;18.598;2023-07-29T00:57:20;12.97;99.23
70271;SHT31;57680;54.292;18.598;2023-07-29T00:59:46;13.00;99.31
70271;SHT31;57680;54.292;18.598;2023-07-29T01:02:12;12.95;99.02
70271;SHT31;57680;54.292;18.598;2023-07-29T01:04:37;12.87;98.77
70271;SHT31;57680;54.292;18.598;2023-07-29T01:10:05;12.83;99.00
70271;SHT31;57680;54.292;18.598;2023-07-29T01:12:42;12.79;99.18
70271;SHT31;57680;54.292;18.598;2023-07-29T01:15:14;12.81;99.36
70271;SHT31;57680;54.292;18.598;2023-07-29T01:18:49;12.87;99.63
70271;SHT31;57680;54.292;18.598;2023-07-29T01:20:59;12.94;99.54
70271;SHT31;57680;54.292;18.598;2023-07-29T01:23:34;12.95;99.58
70271;SHT31;57680;54.292;18.598;2023-07-29T01:26:02;12.97;99.41
70271;SHT31;57680;54.292;18.598;2023-07-29T01:28:28;12.95;99.36
70271;SHT31;57680;54.292;18.598;2023-07-29T01:31:16;12.93;99.25
70271;SHT31;57680;54.292;18.598;2023-07-29T01:33:51;12.94;99.55
70271;SHT31;57680;54.292;18.598;2023-07-29T01:36:22;13.01;99.77
70271;SHT31;57680;54.292;18.598;2023-07-29T01:38:49;13.01;99.52
70271;SHT31;57680;54.292;18.598;2023-07-29T01:41:16;13.04;99.30
70271;SHT31;57680;54.292;18.598;2023-07-29T01:43:43;13.01;99.20
70271;SHT31;57680;54.292;18.598;2023-07-29T01:46:10;13.05;99.37
70271;SHT31;57680;54.292;18.598;2023-07-29T01:48:35;13.04;99.08
70271;SHT31;57680;54.292;18.598;2023-07-29T01:51:01;13.05;99.06
70271;SHT31;57680;54.292;18.598;2023-07-29T01:53:26;13.00;98.89
70271;SHT31;57680;54.292;18.598;2023-07-29T01:55:51;12.97;99.03
70271;SHT31;57680;54.292;18.598;2023-07-29T01:58:17;12.91;98.89
70271;SHT31;57680;54.292;18.598;2023-07-29T02:00:42;12.94;99.20
70271;SHT31;57680;54.292;18.598;2023-07-29T02:03:07;12.91;99.03
70271;SHT31;57680;54.292;18.598;2023-07-29T02:05:33;12.91;99.05
70271;SHT31;57680;54.292;18.598;2023-07-29T02:07:58;12.91;98.99
70271;SHT31;57680;54.292;18.598;2023-07-29T02:10:23;12.90;99.07
70271;SHT31;57680;54.292;18.598;2023-07-29T02:12:49;12.87;99.01
70271;SHT31;57680;54.292;18.598;2023-07-29T02:15:14;12.83;99.04
70271;SHT31;57680;54.292;18.598;2023-07-29T02:17:41;12.80;98.99
70271;SHT31;57680;54.292;18.598;2023-07-29T02:20:07;12.81;99.04
70271;SHT31;57680;54.292;18.598;2023-07-29T02:22:33;12.77;99.08
70271;SHT31;57680;54.292;18.598;2023-07-29T02:24:58;12.76;99.06
70271;SHT31;57680;54.292;18.598;2023-07-29T02:27:23;12.70;99.03
70271;SHT31;57680;54.292;18.598;2023-07-29T02:29:49;12.68;98.89
70271;SHT31;57680;54.292;18.598;2023-07-29T02:32:14;12.64;99.00
70271;SHT31;57680;54.292;18.598;2023-07-29T02:34:39;12.59;98.84
70271;SHT31;57680;54.292;18.598;2023-07-29T02:37:05;12.57;98.86
70271;SHT31;57680;54.292;18.598;2023-07-29T02:39:30;12.50;98.71
70271;SHT31;57680;54.292;18.598;2023-07-29T02:41:56;12.43;98.66
70271;SHT31;57680;54.292;18.598;2023-07-29T02:44:21;12.39;98.83
70271;SHT31;57680;54.292;18.598;2023-07-29T02:46:46;12.36;98.87
70271;SHT31;57680;54.292;18.598;2023-07-29T02:49:12;12.36;98.79
70271;SHT31;57680;54.292;18.598;2023-07-29T02:51:37;12.28;98.72
70271;SHT31;57680;54.292;18.598;2023-07-29T02:54:02;12.25;98.73
70271;SHT31;57680;54.292;18.598;2023-07-29T02:56:28;12.22;98.60
70271;SHT31;57680;54.292;18.598;2023-07-29T02:58:53;12.22;98.50
70271;SHT31;57680;54.292;18.598;2023-07-29T03:01:18;12.26;98.67
70271;SHT31;57680;54.292;18.598;2023-07-29T03:03:43;12.33;98.20
70271;SHT31;57680;54.292;18.598;2023-07-29T03:06:11;12.46;98.40
70271;SHT31;57680;54.292;18.598;2023-07-29T03:08:36;12.57;98.05
70271;SHT31;57680;54.292;18.598;2023-07-29T03:11:06;12.77;97.71
70271;SHT31;57680;54.292;18.598;2023-07-29T03:13:31;12.91;96.99
70271;SHT31;57680;54.292;18.598;2023-07-29T03:16:10;13.08;96.56
70271;SHT31;57680;54.292;18.598;2023-07-29T03:18:36;13.25;95.44
70271;SHT31;57680;54.292;18.598;2023-07-29T03:21:02;13.42;94.90
70271;SHT31;57680;54.292;18.598;2023-07-29T03:23:28;13.63;94.29
70271;SHT31;57680;54.292;18.598;2023-07-29T03:25:58;13.83;94.13
70271;SHT31;57680;54.292;18.598;2023-07-29T03:28:25;14.13;93.50
70271;SHT31;57680;54.292;18.598;2023-07-29T03:30:51;14.30;92.20
70271;SHT31;57680;54.292;18.598;2023-07-29T03:33:16;14.55;91.43
70271;SHT31;57680;54.292;18.598;2023-07-29T03:35:41;14.74;90.62
70271;SHT31;57680;54.292;18.598;2023-07-29T03:38:07;14.96;89.18
70271;SHT31;57680;54.292;18.598;2023-07-29T03:40:32;15.18;88.93
70271;SHT31;57680;54.292;18.598;2023-07-29T03:42:57;15.37;87.65
70271;SHT31;57680;54.292;18.598;2023-07-29T03:45:23;15.55;87.02
70271;SHT31;57680;54.292;18.598;2023-07-29T03:47:48;15.75;86.03
70271;SHT31;57680;54.292;18.598;2023-07-29T03:50:13;16.08;87.74
70271;SHT31;57680;54.292;18.598;2023-07-29T03:52:39;16.16;85.89
70271;SHT31;57680;54.292;18.598;2023-07-29T03:55:04;16.30;85.41
70271;SHT31;57680;54.292;18.598;2023-07-29T03:57:29;16.49;84.84
70271;SHT31;57680;54.292;18.598;2023-07-29T03:59:55;16.81;84.91
70271;SHT31;57680;54.292;18.598;2023-07-29T04:02:20;16.91;82.48
70271;SHT31;57680;54.292;18.598;2023-07-29T04:04:45;17.28;82.18
70271;SHT31;57680;54.292;18.598;2023-07-29T04:07:11;17.53;81.14
70271;SHT31;57680;54.292;18.598;2023-07-29T04:09:36;17.93;81.41
70271;SHT31;57680;54.292;18.598;2023-07-29T04:12:02;18.17;79.98
70271;SHT31;57680;54.292;18.598;2023-07-29T04:14:27;18.44;79.59
70271;SHT31;57680;54.292;18.598;2023-07-29T04:16:52;18.62;78.28
70271;SHT31;57680;54.292;18.598;2023-07-29T04:19:18;18.75;77.37
70271;SHT31;57680;54.292;18.598;2023-07-29T04:21:43;18.96;77.73
70271;SHT31;57680;54.292;18.598;2023-07-29T04:24:08;18.99;76.32
70271;SHT31;57680;54.292;18.598;2023-07-29T04:26:34;19.16;76.48
70271;SHT31;57680;54.292;18.598;2023-07-29T04:28:59;19.18;75.67
70271;SHT31;57680;54.292;18.598;2023-07-29T04:31:24;19.61;76.47
70271;SHT31;57680;54.292;18.598;2023-07-29T04:33:50;19.95;74.74
70271;SHT31;57680;54.292;18.598;2023-07-29T04:36:15;19.97;73.78
70271;SHT31;57680;54.292;18.598;2023-07-29T04:38:40;20.01;72.88
70271;SHT31;57680;54.292;18.598;2023-07-29T04:41:06;20.24;73.16
70271;SHT31;57680;54.292;18.598;2023-07-29T04:43:31;20.39;72.21
70271;SHT31;57680;54.292;18.598;2023-07-29T04:45:57;20.26;72.29
70271;SHT31;57680;54.292;18.598;2023-07-29T04:48:22;20.59;72.65
70271;SHT31;57680;54.292;18.598;2023-07-29T04:50:48;20.89;72.13
70271;SHT31;57680;54.292;18.598;2023-07-29T04:53:13;21.31;69.08
70271;SHT31;57680;54.292;18.598;2023-07-29T04:55:40;21.62;70.26
70271;SHT31;57680;54.292;18.598;2023-07-29T04:58:05;21.63;68.55
70271;SHT31;57680;54.292;18.598;2023-07-29T05:00:30;21.74;70.18
70271;SHT31;57680;54.292;18.598;2023-07-29T05:02:56;22.03;68.13
70271;SHT31;57680;54.292;18.598;2023-07-29T05:05:21;22.20;67.72
70271;SHT31;57680;54.292;18.598;2023-07-29T05:07:46;22.08;66.22
70271;SHT31;57680;54.292;18.598;2023-07-29T05:10:12;21.93;67.15
70271;SHT31;57680;54.292;18.598;2023-07-29T05:12:37;22.12;68.17
70271;SHT31;57680;54.292;18.598;2023-07-29T05:15:02;21.86;68.63
70271;SHT31;57680;54.292;18.598;2023-07-29T05:17:28;21.82;69.43
70271;SHT31;57680;54.292;18.598;2023-07-29T05:19:53;21.77;68.80
70271;SHT31;57680;54.292;18.598;2023-07-29T05:22:18;22.05;68.45
70271;SHT31;57680;54.292;18.598;2023-07-29T05:24:44;22.22;68.98
70271;SHT31;57680;54.292;18.598;2023-07-29T05:27:09;22.43;67.34
70271;SHT31;57680;54.292;18.598;2023-07-29T05:29:34;22.71;67.50
70271;SHT31;57680;54.292;18.598;2023-07-29T05:32:00;22.90;68.98
70271;SHT31;57680;54.292;18.598;2023-07-29T05:34:25;22.72;66.33
70271;SHT31;57680;54.292;18.598;2023-07-29T05:36:50;22.86;67.55
70271;SHT31;57680;54.292;18.598;2023-07-29T05:39:15;22.68;67.72
70271;SHT31;57680;54.292;18.598;2023-07-29T05:41:41;22.71;66.68
70271;SHT31;57680;54.292;18.598;2023-07-29T05:44:06;23.08;65.43
70271;SHT31;57680;54.292;18.598;2023-07-29T05:46:32;23.07;65.04
70271;SHT31;57680;54.292;18.598;2023-07-29T05:48:57;23.26;64.07
70271;SHT31;57680;54.292;18.598;2023-07-29T05:51:22;23.23;64.88
70271;SHT31;57680;54.292;18.598;2023-07-29T05:53:48;23.02;64.74
70271;SHT31;57680;54.292;18.598;2023-07-29T05:56:13;22.78;66.35
70271;SHT31;57680;54.292;18.598;2023-07-29T05:58:38;22.81;66.26
70271;SHT31;57680;54.292;18.598;2023-07-29T06:01:04;23.38;65.45
70271;SHT31;57680;54.292;18.598;2023-07-29T06:03:29;23.92;63.07
70271;SHT31;57680;54.292;18.598;2023-07-29T06:05:54;24.24;62.22
70271;SHT31;57680;54.292;18.598;2023-07-29T06:08:20;24.44;61.16
70271;SHT31;57680;54.292;18.598;2023-07-29T06:10:45;24.48;60.10
70271;SHT31;57680;54.292;18.598;2023-07-29T06:13:11;24.69;60.14
70271;SHT31;57680;54.292;18.598;2023-07-29T06:15:36;24.90;58.52
70271;SHT31;57680;54.292;18.598;2023-07-29T06:18:01;25.12;57.84
70271;SHT31;57680;54.292;18.598;2023-07-29T06:20:26;25.12;57.49
70271;SHT31;57680;54.292;18.598;2023-07-29T06:22:52;24.79;58.60
70271;SHT31;57680;54.292;18.598;2023-07-29T06:25:17;25.03;57.84
70271;SHT31;57680;54.292;18.598;2023-07-29T06:27:42;25.50;57.83
70271;SHT31;57680;54.292;18.598;2023-07-29T06:30:08;25.26;57.46
70271;SHT31;57680;54.292;18.598;2023-07-29T06:32:34;25.68;55.82
70271;SHT31;57680;54.292;18.598;2023-07-29T06:34:59;25.51;56.67
70271;SHT31;57680;54.292;18.598;2023-07-29T06:37:24;25.61;59.61
70271;SHT31;57680;54.292;18.598;2023-07-29T06:39:50;25.20;57.15
70271;SHT31;57680;54.292;18.598;2023-07-29T06:42:15;25.22;57.99
70271;SHT31;57680;54.292;18.598;2023-07-29T06:44:40;25.16;56.68
70271;SHT31;57680;54.292;18.598;2023-07-29T06:47:06;25.15;56.93
70271;SHT31;57680;54.292;18.598;2023-07-29T06:49:31;24.90;59.60
70271;SHT31;57680;54.292;18.598;2023-07-29T06:51:56;24.65;56.48
70271;SHT31;57680;54.292;18.598;2023-07-29T06:54:25;24.48;56.00
70271;SHT31;57680;54.292;18.598;2023-07-29T06:56:50;24.58;58.01
70271;SHT31;57680;54.292;18.598;2023-07-29T06:59:16;24.06;56.09
70271;SHT31;57680;54.292;18.598;2023-07-29T07:01:41;24.08;59.90
70271;SHT31;57680;54.292;18.598;2023-07-29T07:04:07;23.99;59.57
70271;SHT31;57680;54.292;18.598;2023-07-29T07:06:32;24.08;60.83
70271;SHT31;57680;54.292;18.598;2023-07-29T07:08:57;24.20;59.78
70271;SHT31;57680;54.292;18.598;2023-07-29T07:11:22;24.45;57.89
70271;SHT31;57680;54.292;18.598;2023-07-29T07:13:48;25.00;60.10
70271;SHT31;57680;54.292;18.598;2023-07-29T07:16:13;25.29;55.98
70271;SHT31;57680;54.292;18.598;2023-07-29T07:18:38;25.02;56.48
70271;SHT31;57680;54.292;18.598;2023-07-29T07:21:04;24.95;54.63
70271;SHT31;57680;54.292;18.598;2023-07-29T07:23:29;25.02;55.20
70271;SHT31;57680;54.292;18.598;2023-07-29T07:25:54;25.17;56.38
70271;SHT31;57680;54.292;18.598;2023-07-29T07:28:20;25.19;54.86
70271;SHT31;57680;54.292;18.598;2023-07-29T07:30:45;25.20;53.61
70271;SHT31;57680;54.292;18.598;2023-07-29T07:33:10;25.06;53.46
70271;SHT31;57680;54.292;18.598;2023-07-29T07:35:36;24.96;53.63
70271;SHT31;57680;54.292;18.598;2023-07-29T07:38:01;25.02;52.37
70271;SHT31;57680;54.292;18.598;2023-07-29T07:40:27;25.17;52.09
70271;SHT31;57680;54.292;18.598;2023-07-29T07:42:52;25.12;51.62
70271;SHT31;57680;54.292;18.598;2023-07-29T07:45:18;25.02;51.53
70271;SHT31;57680;54.292;18.598;2023-07-29T07:47:43;25.07;51.30
70271;SHT31;57680;54.292;18.598;2023-07-29T07:50:09;25.26;52.58
70271;SHT31;57680;54.292;18.598;2023-07-29T07:52:34;25.22;52.20
70271;SHT31;57680;54.292;18.598;2023-07-29T07:54:59;25.33;51.04
70271;SHT31;57680;54.292;18.598;2023-07-29T07:57:25;25.34;52.05
70271;SHT31;57680;54.292;18.598;2023-07-29T07:59:50;25.31;49.82
70271;SHT31;57680;54.292;18.598;2023-07-29T08:02:15;25.54;49.87
70271;SHT31;57680;54.292;18.598;2023-07-29T08:04:41;25.64;46.03
70271;SHT31;57680;54.292;18.598;2023-07-29T08:07:06;25.89;48.34
70271;SHT31;57680;54.292;18.598;2023-07-29T08:09:31;26.09;48.46
70271;SHT31;57680;54.292;18.598;2023-07-29T08:11:56;26.18;47.83
70271;SHT31;57680;54.292;18.598;2023-07-29T08:14:22;26.08;45.91
70271;SHT31;57680;54.292;18.598;2023-07-29T08:16:47;26.09;45.72
70271;SHT31;57680;54.292;18.598;2023-07-29T08:19:12;26.06;47.20
70271;SHT31;57680;54.292;18.598;2023-07-29T08:21:38;26.15;47.99
70271;SHT31;57680;54.292;18.598;2023-07-29T08:24:03;26.22;47.81
70271;SHT31;57680;54.292;18.598;2023-07-29T08:26:29;26.28;50.57
70271;SHT31;57680;54.292;18.598;2023-07-29T08:28:54;26.22;47.36
70271;SHT31;57680;54.292;18.598;2023-07-29T08:31:19;26.19;47.30
70271;SHT31;57680;54.292;18.598;2023-07-29T08:33:45;25.97;47.19
70271;SHT31;57680;54.292;18.598;2023-07-29T08:36:10;26.06;46.72
70271;SHT31;57680;54.292;18.598;2023-07-29T08:38:35;26.22;47.60
70271;SHT31;57680;54.292;18.598;2023-07-29T08:41:14;26.19;47.67
70271;SHT31;57680;54.292;18.598;2023-07-29T08:43:50;26.38;46.24
70271;SHT31;57680;54.292;18.598;2023-07-29T08:46:19;26.66;47.88
70271;SHT31;57680;54.292;18.598;2023-07-29T08:48:45;26.90;47.73
70271;SHT31;57680;54.292;18.598;2023-07-29T08:51:11;26.93;47.31
70271;SHT31;57680;54.292;18.598;2023-07-29T08:53:38;26.97;47.01
70271;SHT31;57680;54.292;18.598;2023-07-29T08:56:04;26.80;45.77
70271;SHT31;57680;54.292;18.598;2023-07-29T08:58:29;26.52;45.51
70271;SHT31;57680;54.292;18.598;2023-07-29T09:00:55;26.52;44.93
70271;SHT31;57680;54.292;18.598;2023-07-29T09:03:21;26.29;44.67
70271;SHT31;57680;54.292;18.598;2023-07-29T09:05:46;26.38;46.28
70271;SHT31;57680;54.292;18.598;2023-07-29T09:08:13;26.31;44.51
70271;SHT31;57680;54.292;18.598;2023-07-29T09:10:38;26.18;43.58
70271;SHT31;57680;54.292;18.598;2023-07-29T09:13:04;26.24;45.37
70271;SHT31;57680;54.292;18.598;2023-07-29T09:15:34;26.29;46.86
70271;SHT31;57680;54.292;18.598;2023-07-29T09:18:12;26.40;45.68
70271;SHT31;57680;54.292;18.598;2023-07-29T09:20:39;26.61;45.38
70271;SHT31;57680;54.292;18.598;2023-07-29T09:23:08;26.75;45.23
70271;SHT31;57680;54.292;18.598;2023-07-29T09:25:33;26.59;43.61
70271;SHT31;57680;54.292;18.598;2023-07-29T09:27:59;26.69;45.04
70271;SHT31;57680;54.292;18.598;2023-07-29T09:30:25;26.72;43.68
70271;SHT31;57680;54.292;18.598;2023-07-29T09:32:58;26.55;44.32
70271;SHT31;57680;54.292;18.598;2023-07-29T09:35:27;26.63;46.89
70271;SHT31;57680;54.292;18.598;2023-07-29T09:37:52;26.79;45.19
70271;SHT31;57680;54.292;18.598;2023-07-29T09:40:18;26.80;43.28
70271;SHT31;57680;54.292;18.598;2023-07-29T09:42:51;26.43;41.41
70271;SHT31;57680;54.292;18.598;2023-07-29T09:45:21;26.42;43.11
70271;SHT31;57680;54.292;18.598;2023-07-29T09:47:47;26.45;44.47
70271;SHT31;57680;54.292;18.598;2023-07-29T09:50:12;26.05;44.21
70271;SHT31;57680;54.292;18.598;2023-07-29T09:52:37;26.24;45.99
70271;SHT31;57680;54.292;18.598;2023-07-29T09:55:03;26.12;45.10
70271;SHT31;57680;54.292;18.598;2023-07-29T09:57:30;26.46;47.76
70271;SHT31;57680;54.292;18.598;2023-07-29T09:59:56;26.72;46.91
70271;SHT31;57680;54.292;18.598;2023-07-29T10:02:21;26.76;43.87
70271;SHT31;57680;54.292;18.598;2023-07-29T10:04:47;27.00;43.57
70271;SHT31;57680;54.292;18.598;2023-07-29T10:07:12;27.11;43.58
70271;SHT31;57680;54.292;18.598;2023-07-29T10:09:39;26.98;41.03
70271;SHT31;57680;54.292;18.598;2023-07-29T10:12:06;26.98;40.23
70271;SHT31;57680;54.292;18.598;2023-07-29T10:14:32;27.18;43.01
70271;SHT31;57680;54.292;18.598;2023-07-29T10:16:57;27.00;40.55
70271;SHT31;57680;54.292;18.598;2023-07-29T10:19:24;26.79;41.87
70271;SHT31;57680;54.292;18.598;2023-07-29T10:21:50;26.69;43.55
70271;SHT31;57680;54.292;18.598;2023-07-29T10:24:18;26.84;45.25
70271;SHT31;57680;54.292;18.598;2023-07-29T10:26:49;27.15;44.41
70271;SHT31;57680;54.292;18.598;2023-07-29T10:29:19;27.14;41.87
70271;SHT31;57680;54.292;18.598;2023-07-29T10:31:45;27.11;40.83
70271;SHT31;57680;54.292;18.598;2023-07-29T10:34:12;27.33;41.64
70271;SHT31;57680;54.292;18.598;2023-07-29T10:36:38;27.33;41.44
70271;SHT31;57680;54.292;18.598;2023-07-29T10:39:06;27.33;42.66
70271;SHT31;57680;54.292;18.598;2023-07-29T10:47:16;26.91;42.31
70271;SHT31;57680;54.292;18.598;2023-07-29T10:49:42;27.00;42.52
70271;SHT31;57680;54.292;18.598;2023-07-29T10:52:08;26.96;41.03
70271;SHT31;57680;54.292;18.598;2023-07-29T10:54:44;26.56;38.96
70271;SHT31;57680;54.292;18.598;2023-07-29T10:57:17;26.66;39.75
70271;SHT31;57680;54.292;18.598;2023-07-29T10:59:55;26.69;41.72
70271;SHT31;57680;54.292;18.598;2023-07-29T11:02:29;26.82;41.81
70271;SHT31;57680;54.292;18.598;2023-07-29T11:04:54;26.88;41.40
70271;SHT31;57680;54.292;18.598;2023-07-29T11:07:21;27.08;44.30
70271;SHT31;57680;54.292;18.598;2023-07-29T11:15:04;27.01;44.85
70271;SHT31;57680;54.292;18.598;2023-07-29T11:17:32;27.07;42.63
70271;SHT31;57680;54.292;18.598;2023-07-29T11:20:01;27.11;41.54
70271;SHT31;57680;54.292;18.598;2023-07-29T11:22:28;27.08;42.07
70271;SHT31;57680;54.292;18.598;2023-07-29T11:24:53;27.18;43.91
70271;SHT31;57680;54.292;18.598;2023-07-29T11:27:18;27.10;43.41
70271;SHT31;57680;54.292;18.598;2023-07-29T11:29:44;27.11;42.52
70271;SHT31;57680;54.292;18.598;2023-07-29T11:32:09;27.18;43.65
70271;SHT31;57680;54.292;18.598;2023-07-29T11:34:35;27.38;43.65
70271;SHT31;57680;54.292;18.598;2023-07-29T11:37:00;26.96;42.40
70271;SHT31;57680;54.292;18.598;2023-07-29T11:39:25;26.49;43.08
70271;SHT31;57680;54.292;18.598;2023-07-29T11:41:51;26.32;42.33
70271;SHT31;57680;54.292;18.598;2023-07-29T11:44:17;26.63;44.56
70271;SHT31;57680;54.292;18.598;2023-07-29T11:46:43;26.50;41.36
70271;SHT31;57680;54.292;18.598;2023-07-29T11:49:08;26.55;43.31
70271;SHT31;57680;54.292;18.598;2023-07-29T11:51:34;26.59;42.57
70271;SHT31;57680;54.292;18.598;2023-07-29T11:54:00;26.79;43.99
70271;SHT31;57680;54.292;18.598;2023-07-29T11:56:25;26.61;43.02
70271;SHT31;57680;54.292;18.598;2023-07-29T11:58:51;26.55;43.60
70271;SHT31;57680;54.292;18.598;2023-07-29T12:01:18;26.86;43.92
70271;SHT31;57680;54.292;18.598;2023-07-29T12:03:43;27.12;42.34
70271;SHT31;57680;54.292;18.598;2023-07-29T12:06:09;27.14;42.67
70271;SHT31;57680;54.292;18.598;2023-07-29T12:08:35;27.03;42.68
70271;SHT31;57680;54.292;18.598;2023-07-29T12:11:00;26.87;45.09
70271;SHT31;57680;54.292;18.598;2023-07-29T12:13:26;26.70;43.66
70271;SHT31;57680;54.292;18.598;2023-07-29T12:15:51;26.67;42.82
70271;SHT31;57680;54.292;18.598;2023-07-29T12:18:16;26.69;42.98
70271;SHT31;57680;54.292;18.598;2023-07-29T12:20:42;26.67;44.10
70271;SHT31;57680;54.292;18.598;2023-07-29T12:23:08;26.63;44.85
70271;SHT31;57680;54.292;18.598;2023-07-29T12:25:34;26.67;44.09
70271;SHT31;57680;54.292;18.598;2023-07-29T12:28:06;26.88;44.72
70271;SHT31;57680;54.292;18.598;2023-07-29T12:30:31;26.83;42.98
70271;SHT31;57680;54.292;18.598;2023-07-29T12:32:57;26.88;43.47
70271;SHT31;57680;54.292;18.598;2023-07-29T12:35:22;26.61;45.77
70271;SHT31;57680;54.292;18.598;2023-07-29T12:37:58;26.55;44.77
70271;SHT31;57680;54.292;18.598;2023-07-29T12:40:24;26.69;46.35
70271;SHT31;57680;54.292;18.598;2023-07-29T12:42:50;26.86;47.16
70271;SHT31;57680;54.292;18.598;2023-07-29T12:45:16;26.76;45.16
70271;SHT31;57680;54.292;18.598;2023-07-29T12:47:42;26.56;46.02
70271;SHT31;57680;54.292;18.598;2023-07-29T12:50:07;26.28;46.21
70271;SHT31;57680;54.292;18.598;2023-07-29T12:52:33;26.14;49.49
70271;SHT31;57680;54.292;18.598;2023-07-29T12:54:58;25.99;49.28
70271;SHT31;57680;54.292;18.598;2023-07-29T12:57:23;25.91;48.96
70271;SHT31;57680;54.292;18.598;2023-07-29T12:59:49;25.80;50.95
70271;SHT31;57680;54.292;18.598;2023-07-29T13:02:14;25.82;49.87
70271;SHT31;57680;54.292;18.598;2023-07-29T13:04:39;25.89;49.72
70271;SHT31;57680;54.292;18.598;2023-07-29T13:07:05;25.92;50.30
70271;SHT31;57680;54.292;18.598;2023-07-29T13:09:30;26.04;50.10
70271;SHT31;57680;54.292;18.598;2023-07-29T13:11:56;26.05;49.12
70271;SHT31;57680;54.292;18.598;2023-07-29T13:14:21;26.06;48.43
70271;SHT31;57680;54.292;18.598;2023-07-29T13:16:46;26.19;49.74
70271;SHT31;57680;54.292;18.598;2023-07-29T13:19:12;26.21;50.01
70271;SHT31;57680;54.292;18.598;2023-07-29T13:21:37;26.16;50.02
70271;SHT31;57680;54.292;18.598;2023-07-29T13:24:02;26.06;50.36
70271;SHT31;57680;54.292;18.598;2023-07-29T13:26:28;26.01;50.77
70271;SHT31;57680;54.292;18.598;2023-07-29T13:28:53;26.01;50.40
70271;SHT31;57680;54.292;18.598;2023-07-29T13:31:18;26.11;50.20
70271;SHT31;57680;54.292;18.598;2023-07-29T13:33:43;26.09;51.13
70271;SHT31;57680;54.292;18.598;2023-07-29T13:36:09;26.39;51.81
70271;SHT31;57680;54.292;18.598;2023-07-29T13:38:34;26.29;49.99
70271;SHT31;57680;54.292;18.598;2023-07-29T13:41:00;26.12;51.18
70271;SHT31;57680;54.292;18.598;2023-07-29T13:43:25;26.11;51.37
70271;SHT31;57680;54.292;18.598;2023-07-29T13:45:51;26.16;51.49
70271;SHT31;57680;54.292;18.598;2023-07-29T13:48:16;26.19;51.19
70271;SHT31;57680;54.292;18.598;2023-07-29T13:50:41;26.38;52.09
70271;SHT31;57680;54.292;18.598;2023-07-29T13:53:07;26.39;51.66
70271;SHT31;57680;54.292;18.598;2023-07-29T13:55:32;26.35;51.63
70271;SHT31;57680;54.292;18.598;2023-07-29T13:57:57;26.26;52.12
70271;SHT31;57680;54.292;18.598;2023-07-29T14:00:23;26.43;52.20
70271;SHT31;57680;54.292;18.598;2023-07-29T14:02:48;26.47;50.99
70271;SHT31;57680;54.292;18.598;2023-07-29T14:05:13;26.43;51.59
70271;SHT31;57680;54.292;18.598;2023-07-29T14:07:39;26.64;51.77
70271;SHT31;57680;54.292;18.598;2023-07-29T14:10:04;26.64;52.96
70271;SHT31;57680;54.292;18.598;2023-07-29T14:12:30;26.70;52.52
70271;SHT31;57680;54.292;18.598;2023-07-29T14:14:55;26.76;51.20
70271;SHT31;57680;54.292;18.598;2023-07-29T14:17:20;26.73;51.73
70271;SHT31;57680;54.292;18.598;2023-07-29T14:19:46;26.67;50.82
70271;SHT31;57680;54.292;18.598;2023-07-29T14:22:11;26.50;51.07
70271;SHT31;57680;54.292;18.598;2023-07-29T14:24:36;26.57;51.66
70271;SHT31;57680;54.292;18.598;2023-07-29T14:27:03;26.50;51.58
70271;SHT31;57680;54.292;18.598;2023-07-29T14:29:29;26.50;51.69
70271;SHT31;57680;54.292;18.598;2023-07-29T14:31:54;26.53;52.04
70271;SHT31;57680;54.292;18.598;2023-07-29T14:34:19;26.63;52.04
70271;SHT31;57680;54.292;18.598;2023-07-29T14:36:45;26.84;52.79
70271;SHT31;57680;54.292;18.598;2023-07-29T14:39:10;27.06;52.31
70271;SHT31;57680;54.292;18.598;2023-07-29T14:41:35;26.73;50.79
70271;SHT31;57680;54.292;18.598;2023-07-29T14:44:01;26.79;52.48
70271;SHT31;57680;54.292;18.598;2023-07-29T14:46:26;26.70;52.27
70271;SHT31;57680;54.292;18.598;2023-07-29T14:48:51;26.67;51.93
70271;SHT31;57680;54.292;18.598;2023-07-29T14:51:16;26.56;51.98
70271;SHT31;57680;54.292;18.598;2023-07-29T14:53:42;26.53;52.35
70271;SHT31;57680;54.292;18.598;2023-07-29T14:56:07;26.52;53.64
70271;SHT31;57680;54.292;18.598;2023-07-29T14:58:33;26.33;52.04
70271;SHT31;57680;54.292;18.598;2023-07-29T15:00:58;26.06;53.11
70271;SHT31;57680;54.292;18.598;2023-07-29T15:03:24;26.12;54.58
70271;SHT31;57680;54.292;18.598;2023-07-29T15:05:50;25.92;53.35
70271;SHT31;57680;54.292;18.598;2023-07-29T15:08:15;26.01;53.76
70271;SHT31;57680;54.292;18.598;2023-07-29T15:10:44;26.08;54.36
70271;SHT31;57680;54.292;18.598;2023-07-29T15:13:10;26.32;54.18
70271;SHT31;57680;54.292;18.598;2023-07-29T15:15:35;26.52;54.04
70271;SHT31;57680;54.292;18.598;2023-07-29T15:18:00;26.61;53.28
70271;SHT31;57680;54.292;18.598;2023-07-29T15:20:26;26.59;53.46
70271;SHT31;57680;54.292;18.598;2023-07-29T15:22:51;26.56;54.21